createdAt,value
2018-12-09T14:36:13.240Z,5.52
2018-12-09T14:38:42.338Z,5.56
2018-12-09T14:41:11.450Z,5.52
2018-12-09T14:43:40.605Z,5.59
2018-12-09T14:46:09.428Z,5.46
2018-12-09T14:48:38.644Z,5.48
2018-12-09T14:51:07.446Z,5.61
2018-12-09T14:53:36.485Z,5.34
2018-12-09T14:56:05.676Z,5.45
2018-12-09T14:58:34.903Z,5.32
2018-12-09T15:01:03.877Z,5.38
2018-12-09T15:03:32.904Z,5.46
2018-12-09T15:06:02.101Z,5.58
2018-12-09T15:08:30.949Z,5.45
2018-12-09T15:11:00.025Z,5.39
2018-12-09T15:13:35.317Z,5.30
2018-12-09T15:16:04.306Z,5.29
2018-12-09T15:18:33.175Z,5.27
2018-12-09T15:21:02.025Z,5.38
2018-12-09T15:23:31.095Z,5.32
2018-12-09T15:26:00.162Z,5.28
2018-12-09T15:28:29.380Z,5.34
2018-12-09T15:30:58.329Z,5.34
2018-12-09T15:33:27.237Z,5.36
2018-12-09T15:35:56.523Z,5.31
2018-12-09T15:38:25.450Z,5.25
2018-12-09T15:40:54.625Z,5.26
2018-12-09T15:43:23.787Z,5.27
2018-12-09T15:45:52.823Z,5.31
2018-12-09T15:48:21.677Z,5.30
2018-12-09T15:50:50.565Z,5.29
2018-12-09T15:53:19.437Z,5.27
2018-12-09T15:55:48.285Z,5.26
2018-12-09T15:58:17.086Z,5.21
2018-12-09T16:00:51.211Z,5.30
2018-12-09T16:03:20.364Z,5.23
2018-12-09T16:05:49.151Z,5.29
2018-12-09T16:08:18.021Z,5.29
2018-12-09T16:10:46.924Z,5.22
2018-12-09T16:13:16.025Z,5.22
2018-12-09T16:15:45.115Z,5.20
2018-12-09T16:18:14.140Z,5.19
2018-12-09T16:20:43.118Z,5.20
2018-12-09T16:23:11.903Z,5.26
2018-12-09T16:25:40.699Z,5.28
2018-12-09T16:28:09.558Z,5.26
2018-12-09T16:30:38.380Z,5.21
2018-12-09T16:33:07.189Z,5.20
2018-12-09T16:35:36.556Z,5.21
2018-12-09T16:38:05.397Z,5.16
2018-12-09T16:40:34.236Z,5.16
